Αναφορές METAR από Ελληνικά Αεροδρόμια

Σε αυτή τη σελίδα, μπορείτε να παρακολουθείτε τις αναφορές METAR που προέρχονται από τα κυριότερα αεροδρόμια της Ελλάδας. Το περιεχόμενο αποκωδικοποιείται, οπτικοποιείται και γίνεται κατανοητό από τον καθένα με τη χρήση του όμορφου δίγλωσσου γραφικού περιβάλλοντος του meteothes.gr!

Η αρχική κωδικοποιημένη αναφορά, συμπεριλαμβάνεται επίσης στο κάτω μέρος. Σε όποια καθεστερεί η ενημέρωση, το προειδοποιητικό μήνυμα "Μη ενημερωμένο METAR!" εμφανίζεται στο πάνω μέρος της με κόκκινα γράμματα.

Εχουν προστεθεί επίσης δύο αεροδρόμια από γειτονικές χώρες, την Οχρίδα(ΠΓΔΜ) και την Σόφια(Βουλγαρία) για να ελέγχουμε την εξέλιξη των ψυχρών εισβολών από τα Βόρεια!

LGTS - Thessaloniki/Makedonia-Elev 7m
Distance from station: Ν 13km
Ενημερώθηκε: 25/07/2024 06:50
Διάσπαρτα Nέφη
Διάσπαρτα Nέφη
 Ανεμος από ΒΒΔ
Ανεμος: ΒΒΔ 20 km/h
Θερμοκρασία: 25°C
Σημ. Δρόσου: 19°C
Υγρασία: 69%
Βαρόμετρο: 1007 hPa
Νέφωση: Διάσπαρτα Nέφη
Ορατότητα: 10 km
Λεπτομέρειες Νεφών: Διάσπαρτα Nέφη 914 m
2024/07/25 03:50 LGTS 250350Z 33011KT 9999 FEW030 25/19 Q1007 NOSIG
LGAV - Athens/Elef. Venizelos-Elev 94m
Distance from station: ΝΝΑ 312km
Ενημερώθηκε: 25/07/2024 06:50
Διάσπαρτα Nέφη
Διάσπαρτα Nέφη
 Ανεμος από μεταβλητός
Ανεμος: μεταβλητός 4 km/h
Θερμοκρασία: 28°C
Δείκτη Δυσφορίας: 28°C
Σημ. Δρόσου: 16°C
Υγρασία: 48%
Βαρόμετρο: 1005 hPa
Νέφωση: Διάσπαρτα Nέφη
Ορατότητα: 10 km
Λεπτομέρειες Νεφών: Διάσπαρτα Nέφη 610 m
2024/07/25 03:50 LGAV 250350Z VRB02KT 9999 FEW020 28/16 Q1005 NOSIG
 
LGAL - Alexandroupolis-Elev 3m
Distance from station: Α 251km
Ενημερώθηκε: 25/07/2024 06:50
Διάσπαρτα Nέφη
Διάσπαρτα Nέφη
 Ανεμος από άπνοια
Ανεμος: άπνοια
Θερμοκρασία: 24°C
Σημ. Δρόσου: 16°C
Υγρασία: 61%
Βαρόμετρο: 1005 hPa
Νέφωση: Διάσπαρτα Nέφη
Ορατότητα: 10 km
Λεπτομέρειες Νεφών: Διάσπαρτα Nέφη 762 m
2024/07/25 03:50 LGAL 250350Z 00000KT 9999 FEW025 24/16 Q1005
LGKV - Kavala/Crysoupolis-Elev 5m
Distance from station: ΑΒΑ 144km
Ενημερώθηκε: 25/07/2024 06:50
Μερικώς νεφελώδης
Μερικώς νεφελώδης
 Ανεμος από άπνοια
Ανεμος: άπνοια
Θερμοκρασία: 22°C
Σημ. Δρόσου: 19°C
Υγρασία: 83%
Βαρόμετρο: 1006 hPa
Νέφωση: Μερικώς νεφελώδης
Ορατότητα: 10 km
Λεπτομέρειες Νεφών: Μερικώς νεφελώδης 1067 m
2024/07/25 03:50 LGKV 250350Z 00000KT 9999 SCT035 22/19 Q1006
 
LGSK - Skiathos Island-Elev 15m
Distance from station: ΝΝΑ 168km
Ενημερώθηκε: 24/07/2024 22:50
ΜΗ Ενημερωμένο METAR!
Διάσπαρτα Nέφη
Διάσπαρτα Nέφη
 Ανεμος από ΒΒΔ
Ανεμος: ΒΒΔ 9 km/h
Θερμοκρασία: 29°C
Δείκτη Δυσφορίας: 31°C
Σημ. Δρόσου: 21°C
Υγρασία: 62%
Βαρόμετρο: 1006 hPa
Νέφωση: Διάσπαρτα Nέφη
Ορατότητα: 10 km
Λεπτομέρειες Νεφών: Διάσπαρτα Nέφη 762 m
2024/07/24 19:50 LGSK 241950Z 33005KT 9999 FEW025 29/21 Q1006
LGLM - Limnos Island-Elev 5m
Distance from station: ΑΝΑ 210km
Ενημερώθηκε: 25/07/2024 06:50
Μερικώς νεφελώδης
Μερικώς νεφελώδης
 Ανεμος από ΒΑ
Ανεμος: ΒΑ 20 km/h
Θερμοκρασία: 27°C
Δείκτη Δυσφορίας: 29°C
Σημ. Δρόσου: 20°C
Υγρασία: 66%
Βαρόμετρο: 1004 hPa
Νέφωση: Μερικώς νεφελώδης
Ορατότητα: 10 km
Λεπτομέρειες Νεφών: Μερικώς νεφελώδης 914 m
2024/07/25 03:50 LGLM 250350Z 05011KT 9999 SCT030 27/20 Q1004
 
LGMT - Mitilini Island-Elev 17m
Distance from station: ΑΝΑ 358km
Ενημερώθηκε: 25/07/2024 06:50
Αίθριος
Αίθριος
 Ανεμος από Δ
Ανεμος: Δ 15 km/h
Θερμοκρασία: 25°C
Σημ. Δρόσου: 17°C
Υγρασία: 61%
Βαρόμετρο: 1003 hPa
Συνθήκες: Αίθριος
Ορατότητα: πάνω από 10 km
2024/07/25 03:50 LGMT 250350Z 28008KT CAVOK 25/17 Q1003
LGSY - Skiros Island-Elev 15m
Distance from station: ΝΑ 227km
Ενημερώθηκε: 25/07/2024 06:50
Αίθριος
Αίθριος
 Ανεμος από ΒΔ
Ανεμος: ΒΔ 13 km/h
Θερμοκρασία: 26°C
Σημ. Δρόσου: 23°C
Υγρασία: 84%
Βαρόμετρο: 1004 hPa
Συνθήκες: Αίθριος
Ορατότητα: πάνω από 10 km
2024/07/25 03:50 LGSY 250350Z 32007KT CAVOK 26/23 Q1004 RMK FEW080 SCT180 BLU
 
LGKZ - Kozani-Elev 628m
Distance from station: ΔΝΔ 102km
Ενημερώθηκε: 25/07/2024 06:50
Διάσπαρτα Nέφη
Διάσπαρτα Nέφη
 Ανεμος από ΒΒΔ
Ανεμος: ΒΒΔ 17 km/h
Θερμοκρασία: 18°C
Σημ. Δρόσου: 14°C
Υγρασία: 78%
Βαρόμετρο: 1011 hPa
Νέφωση: Διάσπαρτα Nέφη
Ορατότητα: 10 km
Λεπτομέρειες Νεφών: Διάσπαρτα Nέφη 2134 m
2024/07/25 03:50 LGKZ 250350Z 34009KT 9999 FEW070 18/14 Q1011
LGIO - Ioannina-Elev 476m
Distance from station: ΔΝΔ 209km
Ενημερώθηκε: 25/07/2024 06:50

 Ανεμος από μεταβλητός
Ανεμος: μεταβλητός 2 km/h
Θερμοκρασία: 16°C
Σημ. Δρόσου: 16°C
Υγρασία: 100%
Βαρόμετρο: 1009 hPa
2024/07/25 03:50 LGIO 250350Z AUTO VRB01KT //// // ////// 16/16 Q1009 RE//
 
LGZA - Zakinthos-Elev 3m
Distance from station: ΝΝΔ 367km
Ενημερώθηκε: 25/07/2024 06:50
Αίθριος
Αίθριος
 Ανεμος από μεταβλητός
Ανεμος: μεταβλητός 6 km/h
Θερμοκρασία: 27°C
Δείκτη Δυσφορίας: 30°C
Σημ. Δρόσου: 23°C
Υγρασία: 79%
Βαρόμετρο: 1005 hPa
Συνθήκες: Αίθριος
Ορατότητα: πάνω από 10 km
2024/07/25 03:50 LGZA 250350Z VRB03KT CAVOK 27/23 Q1005
LGKR - Corfu Island-Elev 2m
Distance from station: ΔΝΔ 282km
Ενημερώθηκε: 25/07/2024 06:50
Διάσπαρτα Nέφη
Διάσπαρτα Nέφη
 Ανεμος από μεταβλητός
Ανεμος: μεταβλητός 4 km/h
Θερμοκρασία: 26°C
Σημ. Δρόσου: 23°C
Υγρασία: 84%
Βαρόμετρο: 1005 hPa
Νέφωση: Διάσπαρτα Nέφη
Ορατότητα: 10 km
Λεπτομέρειες Νεφών: Διάσπαρτα Nέφη 610 m
2024/07/25 03:50 LGKR 250350Z VRB02KT 9999 FEW020 26/23 Q1005 NOSIG
 
LGSO - Syros Island-Elev 72m
Distance from station: ΝΝΑ 397km
Ενημερώθηκε: 25/07/2024 05:50
ΜΗ Ενημερωμένο METAR!
Αίθριος
Αίθριος
 Ανεμος από ΒΒΔ
Ανεμος: ΒΒΔ 26 km/h
Θερμοκρασία: 27°C
Δείκτη Δυσφορίας: 28°C
Σημ. Δρόσου: 19°C
Υγρασία: 62%
Βαρόμετρο: 1003 hPa
Συνθήκες: Αίθριος
Ορατότητα: πάνω από 10 km
2024/07/25 02:50 LGSO 250250Z 33014KT CAVOK 27/19 Q1003
LGMK - Mikonos Island-Elev 123m
Distance from station: ΝΝΑ 412km
Ενημερώθηκε: 25/07/2024 06:50
Αίθριος
Αίθριος
 Ανεμος από Β
Ανεμος: Β 30 km/h, Ριπή: 48 km/h
Θερμοκρασία: 25°C
Σημ. Δρόσου: 18°C
Υγρασία: 65%
Βαρόμετρο: 1003 hPa
Συνθήκες: Αίθριος
Ορατότητα: πάνω από 10 km
2024/07/25 03:50 LGMK 250350Z 35016G26KT CAVOK 25/18 Q1003
 
LGSR - Santorini Island-Elev 40m
Distance from station: ΝΝΑ 520km
Ενημερώθηκε: 25/07/2024 06:50
Αίθριος
Αίθριος
 Ανεμος από ΒΔ
Ανεμος: ΒΔ 22 km/h
Θερμοκρασία: 27°C
Δείκτη Δυσφορίας: 28°C
Σημ. Δρόσου: 19°C
Υγρασία: 62%
Βαρόμετρο: 1003 hPa
Συνθήκες: Αίθριος
Ορατότητα: πάνω από 10 km
2024/07/25 03:50 LGSR 250350Z 31012KT CAVOK 27/19 Q1003
LGKL - Kalamata-Elev 8m
Distance from station: Ν 405km
Ενημερώθηκε: 25/07/2024 06:50
Αίθριος
Αίθριος
 Ανεμος από άπνοια
Ανεμος: άπνοια
Θερμοκρασία: 23°C
Σημ. Δρόσου: 19°C
Υγρασία: 78%
Βαρόμετρο: 1005 hPa
Συνθήκες: Αίθριος
Ορατότητα: πάνω από 10 km
2024/07/25 03:50 LGKL 250350Z 00000KT CAVOK 23/19 Q1005
 
LGIR - Iraklion/Crete-Elev 5m
Distance from station: ΝΝΑ 622km
Ενημερώθηκε: 25/07/2024 06:50
Αίθριος
Αίθριος
 Ανεμος από Δ
Ανεμος: Δ 15 km/h
Θερμοκρασία: 26°C
Σημ. Δρόσου: 18°C
Υγρασία: 61%
Βαρόμετρο: 1004 hPa
Συνθήκες: Αίθριος
Ορατότητα: πάνω από 10 km
2024/07/25 03:50 LGIR 250350Z 28008KT CAVOK 26/18 Q1004 NOSIG
LGRP - Rhodes-Elev 5m
Distance from station: ΝΑ 649km
Ενημερώθηκε: 25/07/2024 06:50
Αίθριος
Αίθριος
 Ανεμος από ΝΔ
Ανεμος: ΝΔ 19 km/h
Θερμοκρασία: 27°C
Δείκτη Δυσφορίας: 29°C
Σημ. Δρόσου: 21°C
Υγρασία: 70%
Βαρόμετρο: 999 hPa
Συνθήκες: Αίθριος
Ορατότητα: πάνω από 10 km
2024/07/25 03:50 LGRP 250350Z 23010KT CAVOK 27/21 Q0999 NOSIG
 
LWOH - Ohrid/FYROM-Elev 761m
Distance from station: ΔΒΔ 188km
Ενημερώθηκε: 25/07/2024 07:20
Διάσπαρτα Nέφη
Διάσπαρτα Nέφη
 Ανεμος από ΔΒΔ
Ανεμος: ΔΒΔ 6 km/h
Θερμοκρασία: 16°C
Σημ. Δρόσου: 14°C
Υγρασία: 88%
Βαρόμετρο: 1012 hPa
Νέφωση: Διάσπαρτα Nέφη
Ορατότητα: 10 km
Λεπτομέρειες Νεφών: Διάσπαρτα Nέφη 2743 m
2024/07/25 04:20 LWOH 250420Z 30003KT 250V010 9999 FEW090 16/14 Q1012
LBSF - Sofia/Bulgaria-Elev 595m
Distance from station: Β 227km
Ενημερώθηκε: 25/07/2024 07:00
Κυρίως νεφελώδης
Κυρίως νεφελώδης
 Ανεμος από ΔΒΔ
Ανεμος: ΔΒΔ 6 km/h
Θερμοκρασία: 19°C
Σημ. Δρόσου: 16°C
Υγρασία: 83%
Βαρόμετρο: 1011 hPa
Νέφωση: Κυρίως νεφελώδης
Ορατότητα: 10 km
Λεπτομέρειες Νεφών: Διάσπαρτα Nέφη 1676 m
Κυρίως νεφελώδης 2560 m
2024/07/25 04:00 LBSF 250400Z 29003KT 260V320 9999 FEW055 BKN084 19/16 Q1011 NOSIG

(*) Μερικές αναφορές παρουσιάζουν λιγότερα στοιχεία γιατί οι αρχικές είναι ελλιπείς ή έχουν λάθος μορφοποίηση!